PILOTS ONLINE: 595    ATC ONLINE: 153

CYSY

Sachs Harbour (David Nasogaluak Jr. Saaryuaq) Airport

Location

IATA YSY
City Sachs Harbour
Country  Canada
Latitude 71° 59' 38" N
Longitude 125° 14' 34" W
Elevation 282 ft
Type Medium Airport

Map

Weather

METAR
2014/09/18 23:00
CYSY 182300Z 09016KT 10SM BKN020 00/M02 A2969 RMK SC7 1.0/-3.2/0.0/0.0/ LAST OBS/NEXT 191300Z SLP062
TAF
2014/09/19 19:00
TAF CYSY 191839Z 1919/1923 FCST NOT AVBL DUE NO OBS 
      RMK NXT FCST WILL BE ISSUED AT 201445Z

Runways

08T/26T 4000 ft / 100 ft

Outbound flights

Callsign Flying to Pilot ATD/STD ETA Aircraft

Inbound flights

Callsign Flying from Pilot ATD ETA Aircraft